Time;durP1;ratioP1;P1;durP2;ratioP2;P2;SDS_P1;SDS_P2;PMS_P1;PMS_P2;Temp;Humidity;BMP_temperature;BMP_pressure;BME280_temperature;BME280_humidity;BME280_pressure;Samples;Min_cycle;Max_cycle;Signal;HPM_P1;HPM_P2
2022/07/08 00:02:07;;;;;;;5.57;1.83;;;15.80;94.70;;;;;;4982341;28;20363;-74
2022/07/08 00:04:33;;;;;;;4.83;2.07;;;15.80;94.60;;;;;;4982076;28;20246;-74
2022/07/08 00:06:59;;;;;;;6.83;1.57;;;15.80;94.90;;;;;;4982067;28;20034;-76
2022/07/08 00:09:26;;;;;;;8.43;2.10;;;15.80;94.80;;;;;;4982285;28;20030;-74
2022/07/08 00:11:53;;;;;;;9.15;2.17;;;15.70;94.90;;;;;;4982160;28;20018;-74
2022/07/08 00:14:18;;;;;;;4.85;2.30;;;15.70;94.70;;;;;;4981889;28;20057;-74
2022/07/08 00:16:44;;;;;;;6.27;1.53;;;15.60;95.70;;;;;;4983270;28;20326;-74
2022/07/08 00:19:12;;;;;;;3.23;1.63;;;15.50;95.70;;;;;;4982154;28;20024;-74
2022/07/08 00:21:38;;;;;;;6.47;1.60;;;15.50;96.00;;;;;;4981566;28;20037;-74
2022/07/08 00:24:05;;;;;;;3.23;1.60;;;15.40;95.90;;;;;;4982925;28;20026;-74
2022/07/08 00:26:30;;;;;;;6.10;1.92;;;15.40;96.20;;;;;;4982124;28;20034;-74
2022/07/08 00:28:56;;;;;;;6.43;1.70;;;15.40;96.30;;;;;;4982043;28;20054;-74
2022/07/08 00:31:22;;;;;;;6.63;1.63;;;15.40;96.40;;;;;;4982036;28;20034;-74
2022/07/08 00:33:48;;;;;;;9.23;1.97;;;15.30;96.10;;;;;;4965667;28;20329;-74
2022/07/08 00:36:14;;;;;;;4.90;1.30;;;15.30;95.40;;;;;;4983179;28;20324;-74
2022/07/08 00:38:40;;;;;;;8.00;1.93;;;15.20;95.80;;;;;;4985506;28;20023;-74
2022/07/08 00:41:05;;;;;;;6.73;1.50;;;15.20;95.90;;;;;;4985367;28;20025;-74
2022/07/08 00:43:42;;;;;;;9.50;2.10;;;15.20;96.40;;;;;;4985085;28;20030;-74
2022/07/08 00:46:08;;;;;;;17.27;2.13;;;15.10;96.40;;;;;;4985409;28;20019;-74
2022/07/08 00:48:34;;;;;;;13.60;3.40;;;15.10;95.70;;;;;;4985321;28;20027;-74
2022/07/08 00:51:03;;;;;;;7.73;2.03;;;15.10;95.40;;;;;;4969136;28;20261;-74
2022/07/08 00:53:29;;;;;;;6.97;1.98;;;15.00;95.80;;;;;;5009587;23;20042;-72
2022/07/08 00:55:55;;;;;;;6.18;1.92;;;14.90;95.50;;;;;;5003042;28;20026;-72
2022/07/08 00:58:21;;;;;;;8.67;2.23;;;14.90;95.20;;;;;;5003215;28;20057;-72
2022/07/08 01:00:47;;;;;;;8.53;1.73;;;14.90;95.50;;;;;;4999669;28;20030;-72
2022/07/08 01:03:13;;;;;;;3.67;1.87;;;14.80;96.20;;;;;;4994648;28;20072;-72
2022/07/08 01:05:39;;;;;;;6.28;1.77;;;14.80;95.70;;;;;;5004269;28;20340;-72
2022/07/08 01:08:04;;;;;;;7.88;1.55;;;14.80;95.50;;;;;;5004226;28;20097;-71
2022/07/08 01:10:30;;;;;;;4.50;1.67;;;14.70;95.70;;;;;;5003034;28;20145;-71
2022/07/08 01:12:56;;;;;;;7.07;1.53;;;14.70;95.50;;;;;;5002705;28;20214;-72
2022/07/08 01:15:23;;;;;;;9.97;2.53;;;14.70;95.80;;;;;;5003172;28;20090;-72
2022/07/08 01:17:49;;;;;;;6.45;1.88;;;14.70;95.70;;;;;;5004155;28;20065;-71
2022/07/08 01:20:14;;;;;;;7.57;1.53;;;14.70;96.00;;;;;;5002451;28;20078;-72
2022/07/08 01:22:40;;;;;;;4.10;1.43;;;14.60;95.90;;;;;;5002749;28;20049;-72
2022/07/08 01:25:06;;;;;;;6.07;1.97;;;14.60;95.90;;;;;;5003946;28;20030;-72
2022/07/08 01:27:33;;;;;;;4.93;1.73;;;14.60;96.30;;;;;;5019234;28;20301;-71
2022/07/08 01:29:59;;;;;;;5.57;1.60;;;14.60;95.90;;;;;;5019127;28;20075;-71
2022/07/08 01:32:37;;;;;;;7.37;1.60;;;14.50;96.10;;;;;;5002568;28;20069;-71
2022/07/08 01:35:04;;;;;;;6.80;1.52;;;14.50;96.20;;;;;;4986700;28;20026;-71
2022/07/08 01:37:30;;;;;;;6.05;2.30;;;14.60;96.30;;;;;;5002512;28;20018;-71
2022/07/08 01:39:56;;;;;;;9.77;1.83;;;14.50;96.20;;;;;;5002262;28;20030;-71
2022/07/08 01:42:21;;;;;;;4.07;1.73;;;14.60;96.40;;;;;;5003577;28;20030;-72
2022/07/08 01:44:47;;;;;;;5.93;1.73;;;14.60;96.40;;;;;;5003396;28;20026;-72
2022/07/08 01:47:13;;;;;;;6.45;1.67;;;14.50;96.80;;;;;;5003069;28;20317;-71
2022/07/08 01:49:39;;;;;;;9.17;2.00;;;14.50;96.50;;;;;;5003655;28;20034;-71
2022/07/08 01:52:06;;;;;;;6.47;2.03;;;14.50;96.50;;;;;;5003511;28;20029;-71
2022/07/08 01:54:32;;;;;;;7.00;2.90;;;14.50;96.70;;;;;;4985622;28;20026;-72
2022/07/08 01:57:13;;;;;;;7.25;2.05;;;14.50;96.80;;;;;;4983274;28;20041;-72
2022/07/08 01:59:42;;;;;;;5.15;1.77;;;14.50;96.50;;;;;;5001829;28;20117;-71
2022/07/08 02:02:09;;;;;;;7.03;2.10;;;14.40;96.40;;;;;;4986549;28;20214;-71
2022/07/08 02:04:35;;;;;;;6.15;1.83;;;14.40;96.40;;;;;;4985676;28;20014;-72
2022/07/08 02:07:01;;;;;;;5.13;2.00;;;14.30;96.60;;;;;;5002052;28;20101;-72
2022/07/08 02:09:27;;;;;;;8.33;2.13;;;14.20;96.80;;;;;;5002970;28;20026;-71
2022/07/08 02:14:37;;;;;;;6.95;2.00;;;14.20;96.60;;;;;;5002780;28;20032;-71
2022/07/08 02:17:03;;;;;;;9.03;2.60;;;14.20;96.60;;;;;;5003169;28;20030;-71
2022/07/08 02:19:29;;;;;;;6.97;1.98;;;14.20;97.10;;;;;;5001897;28;20080;-71
2022/07/08 02:21:55;;;;;;;5.78;2.05;;;14.10;97.60;;;;;;5001237;28;20105;-71
2022/07/08 02:24:21;;;;;;;7.47;2.23;;;14.10;97.70;;;;;;5002220;28;20022;-71
2022/07/08 02:26:47;;;;;;;8.75;2.30;;;14.10;98.00;;;;;;5018090;28;20297;-71
2022/07/08 02:29:13;;;;;;;5.63;1.80;;;14.10;98.10;;;;;;5002875;28;20030;-71
2022/07/08 02:31:38;;;;;;;5.03;1.67;;;14.00;97.70;;;;;;5002868;28;20298;-71
2022/07/08 02:34:04;;;;;;;9.77;2.08;;;14.00;98.10;;;;;;5002319;28;20029;-70
2022/07/08 02:36:30;;;;;;;8.03;1.93;;;14.00;98.30;;;;;;5002697;28;20106;-71
2022/07/08 02:38:55;;;;;;;6.07;1.73;;;13.90;98.50;;;;;;5002419;28;20081;-72
2022/07/08 02:41:21;;;;;;;4.47;2.00;;;13.90;98.70;;;;;;5002552;28;20202;-72
2022/07/08 02:43:47;;;;;;;5.07;2.03;;;13.90;98.90;;;;;;5002238;28;20022;-72
2022/07/08 02:46:13;;;;;;;6.05;1.70;;;13.90;99.00;;;;;;5017719;28;20085;-71
2022/07/08 02:48:39;;;;;;;10.35;2.10;;;13.90;99.00;;;;;;5002451;28;20018;-72
2022/07/08 02:51:05;;;;;;;4.25;1.88;;;13.90;98.70;;;;;;5001284;28;20093;-71
2022/07/08 02:53:31;;;;;;;4.03;1.92;;;13.90;98.90;;;;;;5001546;28;20034;-71
2022/07/08 02:55:57;;;;;;;8.30;2.17;;;13.80;98.60;;;;;;5002331;28;20241;-71
2022/07/08 02:58:22;;;;;;;10.03;1.97;;;13.80;98.40;;;;;;5001541;28;20041;-70
2022/07/08 03:00:48;;;;;;;10.27;2.50;;;13.80;98.50;;;;;;5002141;28;20045;-71
2022/07/08 03:03:14;;;;;;;4.70;2.10;;;13.80;98.70;;;;;;5001971;28;20022;-71
2022/07/08 03:05:40;;;;;;;7.38;2.00;;;13.80;98.50;;;;;;5000939;28;20119;-71
2022/07/08 03:08:05;;;;;;;5.83;1.70;;;13.80;98.70;;;;;;5001917;28;20025;-71
2022/07/08 03:10:31;;;;;;;7.65;1.85;;;13.70;98.60;;;;;;5017462;28;20041;-71
2022/07/08 03:12:57;;;;;;;6.53;2.50;;;13.80;98.50;;;;;;5001771;28;20029;-70
2022/07/08 03:15:23;;;;;;;5.30;2.17;;;13.80;98.30;;;;;;5002146;28;20029;-71
2022/07/08 03:17:49;;;;;;;5.30;1.90;;;13.80;98.30;;;;;;5002197;28;20026;-71
2022/07/08 03:20:14;;;;;;;7.07;1.80;;;13.80;98.40;;;;;;5017096;28;20022;-71
2022/07/08 03:22:40;;;;;;;5.67;1.63;;;13.80;98.30;;;;;;5001832;28;20029;-71
2022/07/08 03:25:06;;;;;;;5.27;1.77;;;13.90;97.80;;;;;;5001836;28;20324;-71
2022/07/08 03:27:32;;;;;;;5.80;1.80;;;13.90;97.60;;;;;;5002780;28;20077;-70
2022/07/08 03:29:58;;;;;;;8.17;1.80;;;13.90;97.00;;;;;;5003155;28;20034;-70
2022/07/08 03:32:24;;;;;;;7.37;2.00;;;13.90;96.90;;;;;;5003104;28;20232;-71
2022/07/08 03:34:50;;;;;;;4.30;1.63;;;13.90;96.30;;;;;;5002711;28;20026;-71
2022/07/08 03:37:15;;;;;;;4.13;1.67;;;13.90;96.50;;;;;;5002998;28;20026;-70
2022/07/08 03:39:41;;;;;;;10.52;4.15;;;13.90;96.80;;;;;;5002788;28;20601;-71
2022/07/08 03:42:07;;;;;;;9.07;1.90;;;14.00;97.10;;;;;;5018259;28;20026;-71
2022/07/08 03:44:33;;;;;;;3.73;2.10;;;14.00;97.00;;;;;;5017799;28;20022;-71
2022/07/08 03:46:59;;;;;;;3.50;1.92;;;14.00;96.70;;;;;;5018206;28;20026;-71
2022/07/08 03:49:25;;;;;;;7.80;1.83;;;14.00;96.90;;;;;;5002941;28;20018;-70
2022/07/08 03:51:50;;;;;;;4.45;1.75;;;14.00;96.60;;;;;;5001718;28;20034;-70
2022/07/08 03:54:16;;;;;;;7.50;2.53;;;14.00;97.20;;;;;;5002242;28;20033;-71
2022/07/08 03:56:42;;;;;;;4.73;1.90;;;14.10;97.10;;;;;;5018222;28;20041;-70
2022/07/08 03:59:08;;;;;;;5.25;1.95;;;14.10;97.30;;;;;;5002853;28;20333;-70
2022/07/08 04:01:33;;;;;;;6.73;2.13;;;14.10;97.60;;;;;;5018098;28;20073;-71
2022/07/08 04:03:59;;;;;;;8.80;2.00;;;14.10;97.30;;;;;;5000282;28;20023;-71
2022/07/08 04:06:25;;;;;;;12.83;2.53;;;14.10;97.30;;;;;;5000420;28;20057;-70
2022/07/08 04:08:51;;;;;;;9.17;3.27;;;14.10;96.10;;;;;;5002487;28;20033;-71
2022/07/08 04:11:16;;;;;;;7.43;2.10;;;14.10;96.60;;;;;;5005839;28;20037;-70
2022/07/08 04:13:42;;;;;;;8.52;2.10;;;14.10;96.30;;;;;;5006221;28;20026;-72
2022/07/08 04:16:12;;;;;;;7.95;2.53;;;14.10;96.00;;;;;;5007621;28;20033;-71
2022/07/08 04:18:41;;;;;;;11.60;3.83;;;14.10;96.30;;;;;;5021305;28;20058;-70
2022/07/08 04:21:08;;;;;;;9.25;2.17;;;14.10;96.00;;;;;;4988547;28;20217;-70
2022/07/08 04:23:34;;;;;;;4.78;1.73;;;14.20;96.40;;;;;;5002914;28;20050;-70
2022/07/08 04:26:00;;;;;;;4.32;1.70;;;14.20;97.00;;;;;;5003196;28;20018;-70
2022/07/08 04:28:25;;;;;;;5.10;1.70;;;14.20;96.80;;;;;;5002723;28;20347;-71
2022/07/08 04:30:51;;;;;;;4.30;1.70;;;14.20;96.70;;;;;;5003774;28;20026;-71
2022/07/08 04:33:17;;;;;;;9.13;1.80;;;14.20;96.60;;;;;;5003519;28;20034;-70
2022/07/08 04:35:43;;;;;;;4.93;1.77;;;14.20;96.70;;;;;;4996656;28;20060;-70
2022/07/08 04:38:08;;;;;;;7.17;2.07;;;14.20;96.60;;;;;;5005831;28;20224;-70
2022/07/08 04:40:35;;;;;;;7.93;2.50;;;14.20;96.00;;;;;;5005577;28;20023;-70
2022/07/08 04:43:00;;;;;;;3.47;1.40;;;14.30;96.40;;;;;;5004286;28;20368;-70
2022/07/08 04:45:26;;;;;;;2.35;1.42;;;14.30;96.30;;;;;;5004500;28;20321;-70
2022/07/08 04:47:52;;;;;;;4.60;1.80;;;14.30;95.40;;;;;;4986761;28;20049;-70
2022/07/08 04:50:18;;;;;;;6.47;2.20;;;14.30;95.90;;;;;;4987822;28;20022;-70
2022/07/08 04:52:44;;;;;;;10.52;2.03;;;14.30;95.80;;;;;;4995523;28;20282;-70
2022/07/08 04:55:27;;;;;;;7.83;1.73;;;14.30;96.40;;;;;;4996809;28;20042;-70
2022/07/08 04:58:03;;;;;;;5.85;1.48;;;14.30;96.30;;;;;;4994044;28;20034;-70
2022/07/08 05:00:30;;;;;;;9.25;2.30;;;14.30;96.00;;;;;;4990445;28;20030;-70
2022/07/08 05:02:56;;;;;;;7.57;1.70;;;14.40;95.80;;;;;;4988156;28;20027;-70
2022/07/08 05:05:22;;;;;;;4.27;1.57;;;14.40;95.80;;;;;;4984885;28;20018;-70
2022/07/08 05:07:48;;;;;;;6.10;1.97;;;14.40;96.20;;;;;;4985887;28;20029;-70
2022/07/08 05:10:16;;;;;;;7.63;2.30;;;14.40;96.30;;;;;;4984498;28;20026;-70
2022/07/08 05:12:42;;;;;;;5.68;1.85;;;14.40;96.20;;;;;;4984360;28;20317;-71
2022/07/08 05:15:09;;;;;;;7.03;1.75;;;14.40;96.20;;;;;;4968433;28;20019;-70
2022/07/08 05:17:35;;;;;;;4.63;1.70;;;14.40;96.40;;;;;;4985971;28;20034;-70
2022/07/08 05:20:00;;;;;;;6.15;1.77;;;14.40;96.40;;;;;;4984521;28;20034;-71
2022/07/08 05:22:26;;;;;;;6.10;1.88;;;14.50;96.70;;;;;;4984848;28;20061;-71
2022/07/08 05:24:52;;;;;;;3.67;1.63;;;14.50;97.30;;;;;;5000659;28;20061;-71
2022/07/08 05:27:18;;;;;;;6.97;2.37;;;14.60;96.50;;;;;;5000983;28;20029;-71
2022/07/08 05:29:43;;;;;;;12.13;1.70;;;14.60;96.00;;;;;;5003489;28;20022;-71
2022/07/08 05:32:09;;;;;;;13.13;2.40;;;14.60;95.80;;;;;;5003459;28;20022;-72
2022/07/08 05:34:35;;;;;;;5.07;1.67;;;14.70;95.50;;;;;;5004151;28;20024;-74
2022/07/08 05:37:01;;;;;;;8.38;2.00;;;14.70;95.10;;;;;;5002261;28;20321;-71
2022/07/08 05:39:27;;;;;;;4.07;1.40;;;14.70;94.50;;;;;;5001538;28;20037;-71
2022/07/08 05:41:53;;;;;;;4.87;1.70;;;14.70;94.90;;;;;;4999436;28;20097;-73
2022/07/08 05:44:18;;;;;;;6.33;1.33;;;14.80;95.20;;;;;;5003932;28;20029;-72
2022/07/08 05:46:44;;;;;;;5.53;1.73;;;14.80;95.90;;;;;;5019586;28;20076;-71
2022/07/08 05:49:10;;;;;;;5.40;1.90;;;14.80;94.60;;;;;;5004576;28;20321;-71
2022/07/08 05:51:36;;;;;;;8.05;1.75;;;14.80;95.40;;;;;;5003422;28;20030;-71
2022/07/08 05:54:02;;;;;;;5.13;1.83;;;14.90;95.70;;;;;;5003715;28;20281;-72
2022/07/08 05:56:28;;;;;;;5.00;1.93;;;14.90;94.10;;;;;;5004539;28;20257;-71
2022/07/08 05:58:54;;;;;;;4.57;1.83;;;14.90;94.60;;;;;;5004388;28;20026;-71
2022/07/08 06:01:19;;;;;;;6.20;1.80;;;14.90;94.20;;;;;;5003337;28;20050;-72
2022/07/08 06:03:45;;;;;;;3.08;1.42;;;15.00;94.80;;;;;;4996284;28;20034;-72
2022/07/08 06:06:11;;;;;;;4.90;1.80;;;15.00;95.20;;;;;;4999784;28;20033;-72
2022/07/08 06:08:37;;;;;;;3.67;1.40;;;15.00;95.20;;;;;;5002102;28;20030;-72
2022/07/08 06:11:03;;;;;;;6.00;1.70;;;15.10;94.30;;;;;;5003568;28;20053;-72
2022/07/08 06:13:29;;;;;;;8.55;1.85;;;15.10;94.30;;;;;;4983355;28;20034;-72
2022/07/08 06:15:55;;;;;;;4.80;1.60;;;15.10;93.40;;;;;;4996065;28;20037;-71
2022/07/08 06:18:21;;;;;;;5.43;1.55;;;15.10;94.20;;;;;;5000335;28;20044;-69
2022/07/08 06:20:46;;;;;;;4.70;1.70;;;15.10;95.30;;;;;;4992061;28;20344;-69
2022/07/08 06:23:12;;;;;;;4.67;1.60;;;15.20;94.80;;;;;;5001454;28;20277;-69
2022/07/08 06:25:38;;;;;;;5.57;1.53;;;15.20;94.40;;;;;;4998814;28;20018;-71
2022/07/08 06:28:04;;;;;;;7.53;1.50;;;15.30;94.30;;;;;;5002537;28;20019;-70
2022/07/08 06:30:30;;;;;;;7.43;2.00;;;15.40;94.90;;;;;;5002799;28;20269;-75
2022/07/08 06:32:56;;;;;;;7.00;1.60;;;15.40;94.30;;;;;;4979993;28;20022;-74
2022/07/08 06:35:21;;;;;;;7.80;1.97;;;15.40;93.80;;;;;;4983307;28;20045;-74
2022/07/08 06:37:47;;;;;;;11.13;2.00;;;15.40;94.00;;;;;;4997784;28;20026;-74
2022/07/08 06:40:13;;;;;;;11.83;1.83;;;15.40;93.70;;;;;;5002487;28;20073;-74
2022/07/08 06:42:39;;;;;;;10.33;2.00;;;15.40;93.60;;;;;;5003505;28;20117;-75
2022/07/08 06:45:06;;;;;;;4.97;1.00;;;15.50;93.50;;;;;;4966993;28;20015;-75
2022/07/08 06:47:31;;;;;;;;;;;15.40;93.40;;;;;;4983748;28;20199;-75
2022/07/08 06:49:57;;;;;;;3.80;1.25;;;15.40;93.70;;;;;;4984331;28;19930;-76
2022/07/08 06:52:23;;;;;;;4.33;1.50;;;15.40;94.20;;;;;;4998961;28;20053;-73
2022/07/08 06:54:49;;;;;;;5.13;1.40;;;15.40;94.40;;;;;;4999764;28;20030;-79
2022/07/08 06:57:15;;;;;;;4.27;1.47;;;15.40;93.50;;;;;;5002501;28;20206;-76
2022/07/08 06:59:41;;;;;;;7.88;1.75;;;15.40;93.80;;;;;;5002080;28;20023;-76
2022/07/08 07:02:08;;;;;;;4.22;1.40;;;15.40;93.90;;;;;;5018549;28;20088;-77
2022/07/08 07:04:34;;;;;;;7.97;1.50;;;15.50;93.40;;;;;;5018202;28;20085;-77
2022/07/08 07:07:01;;;;;;;11.15;1.92;;;15.50;93.40;;;;;;5002539;28;20030;-77
2022/07/08 07:09:26;;;;;;;7.83;2.10;;;15.50;93.40;;;;;;5002326;28;20375;-77
2022/07/08 07:11:52;;;;;;;5.03;2.50;;;15.60;93.70;;;;;;5001898;28;20048;-78
2022/07/08 07:14:18;;;;;;;5.53;2.07;;;15.60;93.60;;;;;;5001928;28;20030;-75
2022/07/08 07:16:44;;;;;;;6.13;1.60;;;15.60;93.90;;;;;;5002013;28;20090;-76
2022/07/08 07:19:11;;;;;;;7.97;2.10;;;15.70;93.50;;;;;;5003355;28;20030;-77
2022/07/08 07:21:37;;;;;;;4.97;1.67;;;15.70;93.50;;;;;;5001845;28;20022;-75
2022/07/08 07:24:03;;;;;;;5.10;1.70;;;15.80;93.30;;;;;;5014645;28;20026;-77
2022/07/08 07:26:28;;;;;;;7.30;1.77;;;15.80;93.30;;;;;;4950450;28;20380;-76
2022/07/08 07:28:55;;;;;;;4.57;1.50;;;15.80;93.40;;;;;;4983351;28;20377;-76
2022/07/08 07:31:21;;;;;;;4.75;1.60;;;15.90;94.00;;;;;;4982573;28;20094;-76
2022/07/08 07:33:47;;;;;;;10.67;2.30;;;16.00;94.00;;;;;;4950315;28;20044;-76
2022/07/08 07:36:12;;;;;;;4.73;1.73;;;16.10;93.70;;;;;;4966595;28;20102;-76
2022/07/08 07:38:38;;;;;;;8.53;1.63;;;16.10;93.50;;;;;;4982372;28;20061;-82
2022/07/08 07:41:04;;;;;;;7.00;2.23;;;16.10;92.00;;;;;;4966198;28;20389;-77
2022/07/08 07:43:30;;;;;;;7.67;1.80;;;16.10;92.80;;;;;;4983392;28;20246;-79
2022/07/08 07:45:55;;;;;;;5.97;1.50;;;16.20;92.70;;;;;;4986036;28;20254;-78
2022/07/08 07:48:22;;;;;;;5.30;1.53;;;16.30;93.80;;;;;;4973685;28;20317;-75
2022/07/08 07:50:47;;;;;;;5.53;1.52;;;16.30;92.80;;;;;;5005757;28;20098;-73
2022/07/08 07:53:13;;;;;;;9.97;2.17;;;16.30;91.70;;;;;;5001332;28;20030;-73
2022/07/08 07:55:39;;;;;;;5.10;1.33;;;16.40;91.80;;;;;;4985702;28;20073;-73
2022/07/08 07:58:05;;;;;;;5.47;1.20;;;16.40;91.10;;;;;;4986205;28;20029;-73
2022/07/08 08:00:30;;;;;;;8.50;1.60;;;16.50;91.00;;;;;;4987168;28;20094;-73
2022/07/08 08:02:56;;;;;;;7.53;2.33;;;16.50;91.80;;;;;;4985757;28;20018;-73
2022/07/08 08:05:22;;;;;;;3.93;1.57;;;16.50;90.70;;;;;;4985859;28;20026;-73
2022/07/08 08:07:48;;;;;;;7.60;2.73;;;16.50;90.80;;;;;;4986050;28;20022;-73
2022/07/08 08:10:14;;;;;;;6.60;1.83;;;16.50;90.60;;;;;;4987012;28;20342;-73
2022/07/08 08:12:41;;;;;;;4.95;1.60;;;16.60;91.10;;;;;;4969588;28;20277;-73
2022/07/08 08:15:07;;;;;;;;;;;16.60;91.00;;;;;;4970379;28;20030;-73
2022/07/08 08:17:40;;;;;;;2.63;1.77;;;16.70;90.40;;;;;;4986679;28;19906;-73
2022/07/08 08:20:07;;;;;;;4.60;1.90;;;16.80;90.40;;;;;;4988482;28;20325;-73
2022/07/08 08:22:33;;;;;;;12.55;2.15;;;16.80;88.70;;;;;;4989646;28;20026;-74
2022/07/08 08:24:59;;;;;;;10.63;2.27;;;16.80;88.70;;;;;;4970985;28;20070;-74
2022/07/08 08:27:24;;;;;;;10.73;2.00;;;16.90;88.20;;;;;;4986836;28;20042;-74
2022/07/08 08:29:50;;;;;;;6.73;1.57;;;16.90;90.00;;;;;;4986423;28;20029;-73
2022/07/08 08:32:16;;;;;;;7.37;1.87;;;16.90;88.00;;;;;;4969540;28;20027;-72
2022/07/08 08:34:42;;;;;;;6.80;1.53;;;16.80;89.10;;;;;;4986268;28;20026;-74
2022/07/08 08:37:07;;;;;;;6.93;1.60;;;16.80;89.70;;;;;;4985552;28;20126;-70
2022/07/08 08:39:33;;;;;;;3.77;1.63;;;16.80;90.30;;;;;;4986251;28;20030;-73
2022/07/08 08:41:59;;;;;;;3.97;1.77;;;16.70;89.40;;;;;;4985060;28;20098;-74
2022/07/08 08:44:26;;;;;;;5.33;1.97;;;16.70;88.60;;;;;;4985125;28;20023;-72
2022/07/08 08:46:52;;;;;;;6.82;1.88;;;16.70;91.20;;;;;;4985297;28;20094;-72
2022/07/08 08:49:19;;;;;;;5.35;1.33;;;16.70;90.30;;;;;;4985331;28;20029;-72
2022/07/08 08:51:44;;;;;;;4.15;1.25;;;16.70;90.90;;;;;;4969228;28;20375;-74
2022/07/08 08:54:10;;;;;;;3.07;1.30;;;16.80;90.90;;;;;;4979360;28;20050;-72
2022/07/08 08:56:36;;;;;;;5.27;1.30;;;16.90;87.40;;;;;;5003546;28;20030;-72
2022/07/08 08:59:01;;;;;;;3.83;1.30;;;17.00;86.50;;;;;;4988478;28;20026;-72
2022/07/08 09:01:30;;;;;;;4.07;1.00;;;17.00;88.00;;;;;;5020702;28;20038;-72
2022/07/08 09:03:58;;;;;;;3.72;1.20;;;17.10;87.80;;;;;;5019871;28;20340;-72
2022/07/08 09:06:24;;;;;;;2.60;1.13;;;17.10;87.20;;;;;;5004355;28;20022;-72
2022/07/08 09:08:50;;;;;;;2.70;1.57;;;17.20;87.00;;;;;;5005303;28;20027;-72
2022/07/08 09:11:19;;;;;;;3.50;1.37;;;17.30;84.80;;;;;;4987498;28;20266;-73
2022/07/08 09:14:30;;;;;;;4.28;1.42;;;17.40;83.40;;;;;;5005011;28;20382;-73
2022/07/08 09:17:10;;;;;;;6.53;1.60;;;17.50;84.30;;;;;;5000055;28;20038;-72
2022/07/08 09:19:37;;;;;;;3.65;1.27;;;17.50;84.90;;;;;;4968538;28;20022;-72
2022/07/08 09:22:05;;;;;;;4.68;1.55;;;17.60;84.00;;;;;;4968777;28;20030;-72
2022/07/08 09:24:31;;;;;;;4.93;2.45;;;17.60;83.40;;;;;;4981830;28;20275;-72
2022/07/08 09:26:57;;;;;;;4.73;1.30;;;17.60;84.40;;;;;;5004760;28;20022;-72
2022/07/08 09:29:23;;;;;;;3.83;1.60;;;17.60;84.50;;;;;;5003983;28;20025;-72
2022/07/08 09:31:49;;;;;;;4.82;1.67;;;17.60;82.30;;;;;;5002631;28;20089;-72
2022/07/08 09:34:17;;;;;;;;;;;17.60;84.10;;;;;;5003915;28;20034;-72
2022/07/08 09:36:49;;;;;;;4.07;1.48;;;17.60;85.70;;;;;;4986416;28;19905;-73
2022/07/08 09:39:25;;;;;;;4.60;1.38;;;17.60;86.50;;;;;;5002210;28;20034;-72
2022/07/08 09:41:51;;;;;;;2.90;1.33;;;17.50;85.50;;;;;;4986074;28;20036;-72
2022/07/08 09:44:22;;;;;;;7.43;1.33;;;17.50;87.90;;;;;;5001893;28;20313;-73
2022/07/08 09:46:49;;;;;;;5.72;1.27;;;17.60;85.70;;;;;;5002443;28;20025;-72
2022/07/08 09:49:31;;;;;;;4.90;1.58;;;17.70;83.20;;;;;;4986356;28;20093;-72
2022/07/08 09:51:57;;;;;;;3.40;1.23;;;17.80;85.20;;;;;;4986247;28;20033;-72
2022/07/08 09:54:26;;;;;;;3.83;1.20;;;17.80;84.50;;;;;;4988562;28;20396;-72
2022/07/08 09:57:05;;;;;;;2.78;1.50;;;17.90;81.20;;;;;;4982423;28;20031;-72
2022/07/08 09:59:33;;;;;;;4.30;1.38;;;17.90;81.70;;;;;;4967370;28;20022;-72
2022/07/08 10:01:59;;;;;;;6.53;1.70;;;17.90;81.30;;;;;;4982502;28;20023;-72
2022/07/08 10:04:25;;;;;;;5.53;1.05;;;17.90;82.30;;;;;;4966253;28;20022;-72
2022/07/08 10:06:52;;;;;;;3.50;1.43;;;17.90;85.60;;;;;;4992416;28;20218;-72
2022/07/08 10:09:18;;;;;;;4.18;1.58;;;17.90;87.70;;;;;;5002387;28;20058;-72
2022/07/08 10:11:44;;;;;;;;;;;17.90;88.40;;;;;;4986402;28;20029;-74
2022/07/08 10:14:10;;;;;;;9.82;2.15;;;18.00;79.00;;;;;;5001827;28;20104;-74
2022/07/08 10:16:38;;;;;;;4.27;1.60;;;18.00;82.70;;;;;;4985863;28;20077;-74
2022/07/08 10:19:10;;;;;;;2.97;1.60;;;18.00;83.70;;;;;;4970193;28;20317;-74
2022/07/08 10:21:36;;;;;;;4.82;1.42;;;17.90;84.40;;;;;;5001724;28;20030;-75
2022/07/08 10:24:02;;;;;;;5.35;1.33;;;18.00;82.90;;;;;;4959176;28;20328;-74
2022/07/08 10:26:37;;;;;;;5.32;1.27;;;18.10;83.00;;;;;;4966627;28;20038;-75
2022/07/08 10:29:12;;;;;;;4.15;1.50;;;18.20;81.80;;;;;;4998958;28;20033;-74
2022/07/08 10:31:44;;;;;;;3.20;1.35;;;18.20;82.20;;;;;;4982382;28;20340;-75
2022/07/08 10:34:12;;;;;;;4.32;1.15;;;18.30;82.70;;;;;;4983028;28;20037;-75
2022/07/08 10:36:45;;;;;;;3.00;1.38;;;18.30;83.30;;;;;;4966642;28;20022;-74
2022/07/08 10:39:14;;;;;;;5.78;1.75;;;18.40;79.70;;;;;;4966773;28;20277;-75
2022/07/08 10:41:42;;;;;;;7.68;3.50;;;18.40;80.50;;;;;;4982265;28;20045;-75
2022/07/08 10:44:08;;;;;;;5.72;2.85;;;18.50;79.80;;;;;;4950035;28;20018;-74
2022/07/08 10:46:39;;;;;;;3.83;1.95;;;18.40;83.10;;;;;;4981966;28;20037;-74
2022/07/08 10:49:06;;;;;;;3.70;1.23;;;18.50;83.40;;;;;;4965877;28;20022;-74
2022/07/08 10:51:32;;;;;;;4.55;1.20;;;18.50;81.90;;;;;;4965743;28;20046;-74
2022/07/08 10:54:02;;;;;;;2.73;1.30;;;18.60;80.70;;;;;;4992169;28;20241;-74
2022/07/08 10:56:53;;;;;;;6.45;1.98;;;18.60;79.20;;;;;;4984846;28;20022;-73
2022/07/08 10:59:23;;;;;;;6.35;1.58;;;18.60;82.40;;;;;;5000935;28;20412;-73
2022/07/08 11:02:12;;;;;;;2.33;1.33;;;18.70;79.10;;;;;;5000693;28;20030;-75
2022/07/08 11:04:38;;;;;;;3.97;1.13;;;18.70;79.80;;;;;;5000825;28;20014;-75
2022/07/08 11:07:28;;;;;;;5.60;1.20;;;18.70;81.60;;;;;;5002282;28;20029;-75
2022/07/08 11:10:13;;;;;;;4.90;1.90;;;18.70;83.50;;;;;;5001993;28;20030;-76
2022/07/08 11:12:41;;;;;;;5.47;1.35;;;18.80;81.50;;;;;;5016599;28;20018;-75
2022/07/08 11:15:16;;;;;;;5.13;1.30;;;18.80;81.70;;;;;;5000727;28;20022;-74
2022/07/08 11:17:42;;;;;;;3.33;1.30;;;18.90;80.70;;;;;;5017521;28;20085;-75
2022/07/08 11:20:13;;;;;;;4.23;1.40;;;19.10;79.80;;;;;;4984451;28;20030;-74
2022/07/08 11:22:41;;;;;;;4.30;1.20;;;19.10;78.80;;;;;;5000575;28;20026;-75
2022/07/08 11:25:09;;;;;;;3.60;1.50;;;19.30;80.30;;;;;;5000753;28;20072;-75
2022/07/08 11:27:34;;;;;;;4.35;1.40;;;19.40;78.00;;;;;;4983912;28;20125;-73
2022/07/08 11:30:07;;;;;;;3.93;1.27;;;19.70;82.50;;;;;;5001513;28;20082;-73
2022/07/08 11:32:33;;;;;;;3.25;1.30;;;19.80;79.90;;;;;;4980258;28;20333;-74
2022/07/08 11:34:59;;;;;;;4.07;1.27;;;19.90;79.40;;;;;;4981181;28;20033;-73
2022/07/08 11:37:25;;;;;;;5.63;2.57;;;20.00;78.50;;;;;;4982202;28;20337;-73
2022/07/08 11:39:50;;;;;;;3.25;1.33;;;20.10;79.00;;;;;;4982110;28;20069;-73
2022/07/08 11:42:16;;;;;;;11.63;3.47;;;20.30;76.10;;;;;;4982477;28;20031;-74
2022/07/08 11:44:43;;;;;;;4.07;0.90;;;20.40;76.00;;;;;;4981066;28;20269;-73
2022/07/08 11:47:15;;;;;;;3.30;1.10;;;20.40;77.40;;;;;;4965565;28;20018;-73
2022/07/08 11:49:45;;;;;;;5.75;1.40;;;20.40;73.70;;;;;;4950840;28;20404;-73
2022/07/08 11:52:11;;;;;;;10.63;1.65;;;20.40;76.00;;;;;;4966562;28;20046;-73
2022/07/08 11:54:37;;;;;;;3.70;1.40;;;20.50;75.30;;;;;;4996127;28;20106;-73
2022/07/08 11:57:03;;;;;;;4.43;1.75;;;20.60;73.30;;;;;;5017219;28;20347;-73
2022/07/08 11:59:31;;;;;;;7.55;1.50;;;20.60;72.70;;;;;;5001985;28;20118;-73
2022/07/08 12:02:01;;;;;;;3.80;1.15;;;20.70;72.60;;;;;;4984064;28;20042;-74
2022/07/08 12:04:26;;;;;;;4.47;1.42;;;20.60;74.10;;;;;;5001664;28;20026;-73
2022/07/08 12:06:57;;;;;;;2.00;1.10;;;20.60;71.10;;;;;;5000008;28;20027;-73
2022/07/08 12:09:24;;;;;;;4.13;1.58;;;20.60;75.10;;;;;;5000527;28;20093;-74
2022/07/08 12:12:06;;;;;;;3.15;1.27;;;20.60;74.80;;;;;;5000886;28;20026;-74
2022/07/08 12:14:33;;;;;;;4.13;1.30;;;20.70;72.60;;;;;;4984885;28;20035;-73
2022/07/08 12:16:58;;;;;;;4.25;1.40;;;20.80;70.90;;;;;;5001809;28;20045;-73
2022/07/08 12:19:37;;;;;;;5.63;1.67;;;20.90;73.30;;;;;;5000418;28;20034;-74
2022/07/08 12:22:07;;;;;;;2.03;1.02;;;21.10;73.20;;;;;;5000336;28;20034;-73
2022/07/08 12:24:38;;;;;;;4.15;1.35;;;21.40;72.70;;;;;;4999463;28;20029;-74
2022/07/08 12:27:09;;;;;;;4.10;1.20;;;21.60;71.40;;;;;;5000734;28;20137;-73
2022/07/08 12:29:38;;;;;;;1.92;0.70;;;21.90;74.20;;;;;;5000595;28;20109;-74
2022/07/08 12:32:08;;;;;;;3.42;0.95;;;22.10;71.30;;;;;;5003078;28;20022;-74
2022/07/08 12:34:34;;;;;;;5.95;1.10;;;22.30;73.40;;;;;;5003573;28;20182;-74
2022/07/08 12:37:18;;;;;;;2.08;0.98;;;22.50;69.90;;;;;;4987521;28;20088;-73
2022/07/08 12:39:43;;;;;;;1.55;0.95;;;22.70;66.70;;;;;;4971705;28;20101;-73
2022/07/08 12:42:09;;;;;;;4.95;1.40;;;22.80;67.90;;;;;;5003923;28;20088;-73
2022/07/08 12:44:42;;;;;;;4.35;1.80;;;22.90;67.40;;;;;;5004700;28;20077;-73
2022/07/08 12:47:12;;;;;;;4.70;1.40;;;22.80;65.10;;;;;;4972369;28;20015;-72
2022/07/08 12:49:40;;;;;;;3.70;1.35;;;22.70;68.70;;;;;;5004616;28;20089;-72
2022/07/08 12:52:07;;;;;;;2.50;1.27;;;22.60;65.10;;;;;;4987563;28;20048;-71